Time;durP1;ratioP1;P1;durP2;ratioP2;P2;SDS_P1;SDS_P2;PMS_P1;PMS_P2;Temp;Humidity;BMP_temperature;BMP_pressure;BME280_temperature;BME280_humidity;BME280_pressure;Samples;Min_cycle;Max_cycle;Signal;HPM_P1;HPM_P2
2021/06/25 00:00:51;;;;;;;0.40;0.30;;;15.70;99.90;;;;;;5031255;28;20406;-86
2021/06/25 00:03:17;;;;;;;0.40;0.20;;;15.60;99.90;;;;;;5033648;28;20422;-82
2021/06/25 00:05:42;;;;;;;0.40;0.20;;;15.70;99.90;;;;;;5034386;28;20391;-84
2021/06/25 00:08:08;;;;;;;0.40;0.20;;;15.70;99.90;;;;;;5033493;28;20387;-85
2021/06/25 00:10:34;;;;;;;0.40;0.20;;;15.70;99.90;;;;;;5020548;28;20408;-84
2021/06/25 00:13:01;;;;;;;0.40;0.20;;;15.60;99.90;;;;;;5036696;28;20778;-85
2021/06/25 00:15:27;;;;;;;0.40;0.20;;;15.70;99.90;;;;;;5033134;28;20508;-84
2021/06/25 00:17:53;;;;;;;0.40;0.30;;;15.50;99.90;;;;;;5015658;28;20915;-85
2021/06/25 00:20:20;;;;;;;0.40;0.20;;;15.60;99.90;;;;;;5017208;28;20394;-85
2021/06/25 00:22:46;;;;;;;0.40;0.20;;;15.60;99.90;;;;;;5034425;28;20446;-84
2021/06/25 00:25:12;;;;;;;0.40;0.20;;;15.60;99.90;;;;;;5031516;28;20991;-84
2021/06/25 00:27:38;;;;;;;0.40;0.20;;;15.50;99.90;;;;;;5034503;28;20469;-85
2021/06/25 00:30:06;;;;;;;0.40;0.20;;;15.50;99.90;;;;;;5031399;28;20450;-82
2021/06/25 00:32:31;;;;;;;0.40;0.20;;;15.50;99.90;;;;;;5029389;28;20395;-81
2021/06/25 00:34:57;;;;;;;0.40;0.20;;;15.40;99.90;;;;;;5017308;28;20431;-82
2021/06/25 00:37:23;;;;;;;0.40;0.30;;;15.50;99.90;;;;;;5031950;28;20417;-82
2021/06/25 00:39:48;;;;;;;0.40;0.27;;;15.50;99.90;;;;;;5021428;28;20471;-81
2021/06/25 00:42:14;;;;;;;0.40;0.20;;;15.40;99.90;;;;;;5014721;28;20481;-81
2021/06/25 00:44:40;;;;;;;0.40;0.20;;;15.50;99.90;;;;;;5033626;28;20423;-81
2021/06/25 00:47:08;;;;;;;0.40;0.20;;;15.40;99.90;;;;;;5023361;28;20400;-81
2021/06/25 00:49:34;;;;;;;0.40;0.30;;;15.50;99.90;;;;;;5013359;28;20401;-82
2021/06/25 00:52:00;;;;;;;0.40;0.30;;;15.50;99.90;;;;;;5013604;28;20381;-86
2021/06/25 00:54:26;;;;;;;0.40;0.20;;;15.50;99.90;;;;;;5013145;28;20401;-82
2021/06/25 00:56:51;;;;;;;0.40;0.20;;;15.50;99.90;;;;;;5018199;28;20929;-81
2021/06/25 00:59:17;;;;;;;0.40;0.20;;;15.40;99.90;;;;;;5032532;28;20393;-81
2021/06/25 01:01:43;;;;;;;0.40;0.30;;;15.40;99.90;;;;;;5020261;28;20397;-80
2021/06/25 01:04:11;;;;;;;0.40;0.30;;;15.40;99.90;;;;;;5013753;28;20496;-82
2021/06/25 01:06:37;;;;;;;0.40;0.30;;;15.50;99.90;;;;;;5032860;28;20915;-80
2021/06/25 01:09:04;;;;;;;0.40;0.20;;;15.50;99.90;;;;;;5032397;28;20474;-86
2021/06/25 01:11:31;;;;;;;0.40;0.20;;;15.50;99.90;;;;;;5034207;28;20456;-83
2021/06/25 01:14:00;;;;;;;0.40;0.20;;;15.50;99.90;;;;;;5032224;28;20735;-79
2021/06/25 01:16:26;;;;;;;0.40;0.20;;;15.50;99.90;;;;;;5016830;28;20409;-82
2021/06/25 01:18:53;;;;;;;0.40;0.20;;;15.50;99.90;;;;;;5016198;28;20402;-84
2021/06/25 01:21:18;;;;;;;0.40;0.20;;;15.50;99.90;;;;;;5032579;28;20391;-87
2021/06/25 01:23:44;;;;;;;0.40;0.20;;;15.50;99.90;;;;;;5014240;28;20769;-86
2021/06/25 01:26:10;;;;;;;0.40;0.20;;;15.50;99.90;;;;;;5020971;28;20771;-84
2021/06/25 01:28:36;;;;;;;0.40;0.20;;;15.50;99.90;;;;;;5031766;28;20426;-84
2021/06/25 01:31:03;;;;;;;0.40;0.20;;;15.50;99.90;;;;;;5013507;28;20396;-82
2021/06/25 01:33:29;;;;;;;0.40;0.20;;;15.50;99.90;;;;;;5013455;28;20408;-83
2021/06/25 01:35:56;;;;;;;0.40;0.25;;;15.40;99.90;;;;;;5013087;28;20755;-82
2021/06/25 01:38:23;;;;;;;0.40;0.30;;;15.40;99.90;;;;;;5012049;28;20389;-81
2021/06/25 01:40:48;;;;;;;0.40;0.30;;;15.30;99.90;;;;;;5012843;28;20405;-82
2021/06/25 01:43:14;;;;;;;0.40;0.20;;;15.30;99.90;;;;;;5016555;28;20913;-81
2021/06/25 01:45:42;;;;;;;0.40;0.20;;;15.40;99.90;;;;;;5032705;28;20466;-81
2021/06/25 01:48:09;;;;;;;0.40;0.30;;;15.40;99.90;;;;;;5015542;28;20401;-81
2021/06/25 01:50:39;;;;;;;0.40;0.20;;;15.40;99.90;;;;;;5018345;28;20406;-84
2021/06/25 01:53:11;;;;;;;0.40;0.20;;;15.40;99.90;;;;;;5030666;28;20391;-87
2021/06/25 01:55:41;;;;;;;0.40;0.20;;;15.50;99.90;;;;;;5012442;28;20492;-85
2021/06/25 01:58:09;;;;;;;0.40;0.20;;;15.40;99.90;;;;;;5022184;28;20933;-86
2021/06/25 02:00:36;;;;;;;0.40;0.20;;;15.40;99.90;;;;;;5032560;28;20418;-82
2021/06/25 02:03:02;;;;;;;0.40;0.20;;;15.40;99.90;;;;;;5031878;28;20402;-84
2021/06/25 02:05:27;;;;;;;0.40;0.25;;;15.40;99.90;;;;;;5019616;28;20471;-83
2021/06/25 02:07:53;;;;;;;0.40;0.20;;;15.40;99.90;;;;;;5016663;28;20474;-83
2021/06/25 02:10:18;;;;;;;0.40;0.20;;;15.40;99.90;;;;;;5030226;28;20430;-84
2021/06/25 02:12:44;;;;;;;0.40;0.30;;;15.40;99.90;;;;;;5044800;28;20421;-83
2021/06/25 02:15:10;;;;;;;0.40;0.20;;;15.40;99.90;;;;;;5039635;28;20836;-83
2021/06/25 02:17:37;;;;;;;0.40;0.20;;;15.50;99.90;;;;;;5031687;28;20470;-82
2021/06/25 02:20:04;;;;;;;0.40;0.20;;;15.40;99.90;;;;;;5031867;28;20713;-82
2021/06/25 02:22:30;;;;;;;0.40;0.20;;;15.40;99.90;;;;;;5013921;28;20435;-80
2021/06/25 02:24:55;;;;;;;0.40;0.20;;;15.50;99.90;;;;;;5017658;28;20423;-81
2021/06/25 02:27:21;;;;;;;0.40;0.20;;;15.50;99.90;;;;;;5030550;28;20925;-83
2021/06/25 02:29:47;;;;;;;0.40;0.20;;;15.50;99.90;;;;;;5015420;28;20902;-82
2021/06/25 02:32:12;;;;;;;0.40;0.20;;;15.40;99.90;;;;;;5016403;28;20528;-82
2021/06/25 02:34:38;;;;;;;0.40;0.20;;;15.40;99.90;;;;;;5030452;28;20394;-84
2021/06/25 02:37:04;;;;;;;0.40;0.20;;;15.40;99.90;;;;;;5030859;28;20392;-83
2021/06/25 02:39:29;;;;;;;0.40;0.20;;;15.30;99.90;;;;;;5018945;28;20427;-83
2021/06/25 02:41:55;;;;;;;0.40;0.20;;;15.40;99.90;;;;;;5011815;28;20726;-82
2021/06/25 02:44:21;;;;;;;0.40;0.20;;;15.40;99.90;;;;;;5029604;28;20466;-82
2021/06/25 02:46:46;;;;;;;0.40;0.20;;;15.30;99.90;;;;;;5025848;28;20899;-88
2021/06/25 02:49:12;;;;;;;0.40;0.20;;;15.30;99.90;;;;;;5030908;28;20383;-85
2021/06/25 02:51:37;;;;;;;0.40;0.20;;;15.20;99.90;;;;;;5030249;28;20720;-83
2021/06/25 02:54:03;;;;;;;0.40;0.20;;;15.10;99.90;;;;;;5031904;28;20399;-84
2021/06/25 02:56:29;;;;;;;0.40;0.20;;;15.20;99.90;;;;;;5022042;28;20489;-80
2021/06/25 02:58:55;;;;;;;0.40;0.30;;;15.10;99.90;;;;;;5011518;28;20869;-81
2021/06/25 03:01:20;;;;;;;0.40;0.20;;;15.10;99.90;;;;;;5025660;28;20403;-80
2021/06/25 03:03:46;;;;;;;0.40;0.20;;;15.10;99.90;;;;;;5021340;28;20419;-83
2021/06/25 03:06:12;;;;;;;0.40;0.20;;;15.10;99.90;;;;;;5014403;28;20402;-83
2021/06/25 03:08:37;;;;;;;0.40;0.30;;;15.10;99.90;;;;;;5031209;28;20433;-82
2021/06/25 03:11:03;;;;;;;0.40;0.30;;;15.10;99.90;;;;;;5029836;28;20411;-81
2021/06/25 03:13:29;;;;;;;0.40;0.20;;;15.10;99.90;;;;;;5042345;28;20728;-79
2021/06/25 03:15:55;;;;;;;0.40;0.30;;;15.00;99.90;;;;;;5029848;28;20394;-80
2021/06/25 03:18:21;;;;;;;0.40;0.30;;;15.10;99.90;;;;;;5011900;28;20483;-83
2021/06/25 03:20:47;;;;;;;0.40;0.20;;;15.00;99.90;;;;;;5019933;28;20394;-79
2021/06/25 03:23:13;;;;;;;0.40;0.20;;;15.10;99.90;;;;;;5026675;28;20417;-83
2021/06/25 03:25:41;;;;;;;0.40;0.30;;;15.10;99.90;;;;;;5009599;28;21045;-84
2021/06/25 03:28:07;;;;;;;0.40;0.20;;;15.10;99.90;;;;;;5020446;28;20480;-82
2021/06/25 03:30:33;;;;;;;0.40;0.20;;;15.10;99.90;;;;;;5028844;28;20415;-82
2021/06/25 03:32:59;;;;;;;0.40;0.30;;;15.10;99.90;;;;;;5011083;28;20405;-82
2021/06/25 03:35:25;;;;;;;0.40;0.20;;;15.10;99.90;;;;;;5010921;28;20885;-85
2021/06/25 03:37:50;;;;;;;0.40;0.20;;;15.00;99.90;;;;;;5012245;28;20419;-84
2021/06/25 03:40:17;;;;;;;0.40;0.20;;;15.00;99.90;;;;;;5029048;28;20393;-84
2021/06/25 03:42:43;;;;;;;0.40;0.20;;;15.10;99.90;;;;;;5029649;28;20509;-86
2021/06/25 03:45:11;;;;;;;0.40;0.20;;;15.10;99.90;;;;;;5031059;28;20414;-83
2021/06/25 03:47:37;;;;;;;0.40;0.20;;;15.10;99.90;;;;;;5029278;28;20387;-84
2021/06/25 03:50:05;;;;;;;0.40;0.20;;;15.10;99.90;;;;;;5014379;28;20432;-84
2021/06/25 03:52:30;;;;;;;0.40;0.30;;;15.00;99.90;;;;;;5015521;28;20394;-83
2021/06/25 03:54:56;;;;;;;0.40;0.20;;;15.00;99.90;;;;;;5029329;28;20947;-87
2021/06/25 03:57:22;;;;;;;0.40;0.20;;;15.00;99.90;;;;;;5017544;28;20416;-85
2021/06/25 03:59:47;;;;;;;0.40;0.23;;;15.10;99.90;;;;;;5011536;28;20435;-86
2021/06/25 04:02:13;;;;;;;0.40;0.20;;;15.00;99.90;;;;;;5030427;28;20391;-86
2021/06/25 04:04:40;;;;;;;0.40;0.30;;;15.00;99.90;;;;;;5015394;28;20384;-87
2021/06/25 04:07:06;;;;;;;0.40;0.20;;;15.00;99.90;;;;;;5013607;28;20410;-86
2021/06/25 04:09:33;;;;;;;0.40;0.20;;;15.10;99.90;;;;;;5028882;28;21073;-87
2021/06/25 04:11:59;;;;;;;0.40;0.20;;;15.10;99.90;;;;;;5031321;28;20397;-85
2021/06/25 04:14:25;;;;;;;0.40;0.20;;;15.20;99.90;;;;;;5036730;28;20756;-87
2021/06/25 04:16:51;;;;;;;0.40;0.20;;;15.20;99.90;;;;;;5011007;28;20808;-86
2021/06/25 04:19:16;;;;;;;0.40;0.20;;;15.10;99.90;;;;;;5024288;28;20391;-87
2021/06/25 04:21:42;;;;;;;0.40;0.20;;;15.20;99.90;;;;;;5022227;28;20400;-85
2021/06/25 04:24:08;;;;;;;0.40;0.20;;;15.20;99.90;;;;;;5011373;28;20436;-86
2021/06/25 04:26:35;;;;;;;0.40;0.40;;;15.20;99.90;;;;;;5029939;28;20400;-85
2021/06/25 04:29:03;;;;;;;0.40;0.20;;;15.30;99.90;;;;;;5016829;28;20484;-86
2021/06/25 04:31:29;;;;;;;0.40;0.25;;;15.30;99.90;;;;;;5012962;28;20401;-87
2021/06/25 04:33:55;;;;;;;0.40;0.20;;;15.30;99.90;;;;;;5030789;28;20406;-86
2021/06/25 04:36:21;;;;;;;0.40;0.20;;;15.30;99.90;;;;;;5013207;28;20398;-86
2021/06/25 04:38:46;;;;;;;0.57;0.47;;;15.20;99.90;;;;;;5014887;28;20470;-85
2021/06/25 04:41:12;;;;;;;0.40;0.20;;;15.30;99.90;;;;;;5014252;28;20881;-86
2021/06/25 04:43:38;;;;;;;0.40;0.20;;;15.40;99.90;;;;;;5013095;28;20416;-84
2021/06/25 04:46:03;;;;;;;0.40;0.20;;;15.40;99.90;;;;;;5014504;28;20900;-85
2021/06/25 04:48:29;;;;;;;0.40;0.20;;;15.40;99.90;;;;;;5013358;28;20394;-86
2021/06/25 04:50:55;;;;;;;0.40;0.30;;;15.40;99.90;;;;;;5012834;28;20460;-85
2021/06/25 04:53:21;;;;;;;0.40;0.30;;;15.40;99.90;;;;;;5013083;28;20392;-86
2021/06/25 04:55:47;;;;;;;0.40;0.40;;;15.50;99.90;;;;;;5024141;28;20399;-85
2021/06/25 04:58:16;;;;;;;0.40;0.30;;;15.50;99.90;;;;;;5033731;28;20440;-85
2021/06/25 05:00:43;;;;;;;0.40;0.20;;;15.60;99.90;;;;;;5012921;28;20409;-84
2021/06/25 05:03:09;;;;;;;0.40;0.20;;;15.50;99.90;;;;;;5031970;28;20407;-84
2021/06/25 05:05:36;;;;;;;0.40;0.30;;;15.40;99.90;;;;;;5032795;28;21166;-84
2021/06/25 05:08:03;;;;;;;0.40;0.20;;;15.40;99.90;;;;;;5032018;28;20930;-84
2021/06/25 05:10:28;;;;;;;0.40;0.20;;;15.40;99.90;;;;;;5026465;28;20389;-83
2021/06/25 05:12:54;;;;;;;0.40;0.20;;;15.50;99.90;;;;;;5044332;28;20873;-84
2021/06/25 05:15:20;;;;;;;0.40;0.30;;;15.60;99.90;;;;;;5036418;28;20392;-85
2021/06/25 05:17:50;;;;;;;0.40;0.20;;;15.60;99.90;;;;;;5023927;28;20451;-83
2021/06/25 05:20:17;;;;;;;0.40;0.20;;;15.60;99.90;;;;;;5012059;28;20399;-86
2021/06/25 05:22:43;;;;;;;0.40;0.30;;;15.60;99.90;;;;;;5031818;28;20451;-83
2021/06/25 05:25:08;;;;;;;0.40;0.20;;;15.70;99.90;;;;;;5029317;28;21140;-83
2021/06/25 05:27:34;;;;;;;0.40;0.30;;;15.80;99.90;;;;;;5026026;28;20797;-82
2021/06/25 05:30:00;;;;;;;0.40;0.20;;;15.90;99.90;;;;;;5012934;28;20385;-81
2021/06/25 05:32:25;;;;;;;0.40;0.20;;;15.90;99.90;;;;;;5027470;28;20466;-81
2021/06/25 05:34:51;;;;;;;0.40;0.20;;;15.90;99.90;;;;;;5032554;28;20386;-81
2021/06/25 05:37:17;;;;;;;0.40;0.30;;;15.90;99.90;;;;;;5031360;28;20391;-85
2021/06/25 05:39:43;;;;;;;0.50;0.50;;;15.90;99.90;;;;;;5017796;28;20412;-81
2021/06/25 05:42:09;;;;;;;0.40;0.20;;;16.00;99.90;;;;;;5015412;28;20954;-80
2021/06/25 05:44:35;;;;;;;0.40;0.30;;;16.00;99.90;;;;;;5032247;28;20473;-80
2021/06/25 05:47:04;;;;;;;0.40;0.20;;;16.00;99.90;;;;;;5032301;28;20402;-81
2021/06/25 05:49:30;;;;;;;0.40;0.20;;;16.10;99.90;;;;;;5028955;28;20384;-80
2021/06/25 05:51:55;;;;;;;0.40;0.20;;;16.10;99.90;;;;;;5020500;28;20391;-80
2021/06/25 05:54:21;;;;;;;0.40;0.20;;;16.10;99.90;;;;;;5031302;28;20427;-83
2021/06/25 05:56:50;;;;;;;0.40;0.20;;;16.10;99.90;;;;;;5030428;28;20874;-81
2021/06/25 05:59:18;;;;;;;0.40;0.20;;;16.10;99.90;;;;;;5051052;28;20480;-83
2021/06/25 06:01:43;;;;;;;0.40;0.30;;;16.10;99.90;;;;;;5040413;28;20397;-80
2021/06/25 06:04:09;;;;;;;0.40;0.30;;;16.10;99.90;;;;;;5032275;28;20425;-78
2021/06/25 06:06:34;;;;;;;0.40;0.30;;;16.00;99.90;;;;;;5024830;28;20397;-76
2021/06/25 06:09:02;;;;;;;0.40;0.30;;;16.10;99.90;;;;;;5029407;28;20798;-78
2021/06/25 06:11:28;;;;;;;0.40;0.20;;;16.10;99.90;;;;;;5029397;28;20476;-78
2021/06/25 06:13:53;;;;;;;0.40;0.20;;;16.10;99.90;;;;;;5023155;28;20492;-81
2021/06/25 06:16:19;;;;;;;0.40;0.30;;;16.20;99.90;;;;;;5026361;28;20489;-80
2021/06/25 06:21:13;;;;;;;0.40;0.20;;;16.10;99.90;;;;;;5032238;28;20380;-78
2021/06/25 06:32:38;;;;;;;0.40;0.20;;;16.40;99.90;;;;;;5032243;28;20385;-80
2021/06/25 06:34:43;;;;;;;0.40;0.20;;;16.40;99.90;;;;;;5016361;28;21011;-78
2021/06/25 06:37:08;;;;;;;0.40;0.30;;;16.50;99.90;;;;;;5020622;28;20496;-80
2021/06/25 06:39:34;;;;;;;0.40;0.20;;;16.50;99.90;;;;;;5027358;28;20843;-80
2021/06/25 06:42:00;;;;;;;0.40;0.20;;;16.60;99.90;;;;;;5018502;28;20478;-79
2021/06/25 06:44:26;;;;;;;0.40;0.20;;;16.60;99.90;;;;;;5018913;28;20477;-82
2021/06/25 06:46:51;;;;;;;0.40;0.20;;;16.60;99.90;;;;;;5030399;28;20490;-79
2021/06/25 06:49:17;;;;;;;0.40;0.20;;;16.60;99.90;;;;;;5031342;28;20386;-79
2021/06/25 06:51:43;;;;;;;0.40;0.20;;;16.70;99.90;;;;;;5022522;28;20389;-78
2021/06/25 06:54:10;;;;;;;0.40;0.20;;;16.80;99.90;;;;;;5010043;28;20413;-79
2021/06/25 06:56:36;;;;;;;0.40;0.30;;;16.90;99.90;;;;;;5029734;28;20426;-79
2021/06/25 06:59:01;;;;;;;0.40;0.20;;;16.90;99.90;;;;;;5030411;28;20485;-79
2021/06/25 07:01:29;;;;;;;0.40;0.20;;;16.90;99.90;;;;;;5024889;28;20761;-78
2021/06/25 07:03:54;;;;;;;0.40;0.20;;;16.90;99.90;;;;;;5011897;28;20880;-79
2021/06/25 07:06:20;;;;;;;0.40;0.20;;;16.90;99.90;;;;;;5024729;28;20398;-78
2021/06/25 07:08:46;;;;;;;0.40;0.20;;;16.90;99.90;;;;;;5027342;28;21395;-78
2021/06/25 07:11:12;;;;;;;0.40;0.30;;;16.90;99.90;;;;;;5013095;28;20435;-78
2021/06/25 07:13:38;;;;;;;0.40;0.20;;;16.80;99.90;;;;;;5035078;28;20402;-79
2021/06/25 07:16:05;;;;;;;0.40;0.20;;;16.80;99.90;;;;;;5025304;28;20480;-79
2021/06/25 07:18:31;;;;;;;0.40;0.20;;;16.90;99.90;;;;;;5009974;28;20405;-78
2021/06/25 07:20:56;;;;;;;0.40;0.30;;;16.90;99.90;;;;;;5030914;28;20383;-79
2021/06/25 07:23:22;;;;;;;0.40;0.30;;;17.00;99.90;;;;;;5030793;28;20415;-80
2021/06/25 07:25:48;;;;;;;0.40;0.20;;;17.00;99.90;;;;;;5027854;28;20415;-80
2021/06/25 07:28:14;;;;;;;0.40;0.20;;;17.10;99.90;;;;;;5011229;28;20389;-78
2021/06/25 07:30:41;;;;;;;0.40;0.20;;;17.20;99.90;;;;;;5010559;28;20435;-80
2021/06/25 07:33:07;;;;;;;0.40;0.20;;;17.20;99.90;;;;;;5011140;28;20392;-79
2021/06/25 07:35:32;;;;;;;0.40;0.20;;;17.20;99.90;;;;;;5011080;28;21028;-79
2021/06/25 07:37:58;;;;;;;0.40;0.20;;;17.20;99.90;;;;;;5010359;28;20396;-79
2021/06/25 07:40:24;;;;;;;0.40;0.30;;;17.30;99.90;;;;;;5014327;28;20898;-80
2021/06/25 07:42:50;;;;;;;0.40;0.20;;;17.30;99.90;;;;;;5030180;28;20415;-79
2021/06/25 07:45:15;;;;;;;0.40;0.20;;;17.30;99.90;;;;;;5030574;28;20862;-80
2021/06/25 07:47:43;;;;;;;0.40;0.20;;;17.40;99.90;;;;;;5023784;28;20393;-79
2021/06/25 07:50:12;;;;;;;0.40;0.30;;;17.40;99.90;;;;;;5009891;28;20400;-78
2021/06/25 07:52:38;;;;;;;0.40;0.30;;;17.40;99.90;;;;;;5010565;28;20436;-79
2021/06/25 07:55:05;;;;;;;0.40;0.20;;;17.40;99.90;;;;;;5018272;28;20407;-80
2021/06/25 07:57:31;;;;;;;0.40;0.30;;;17.50;99.90;;;;;;5024523;28;20400;-80
2021/06/25 07:59:56;;;;;;;0.40;0.30;;;17.70;99.90;;;;;;5009860;28;20903;-80
2021/06/25 08:02:22;;;;;;;0.40;0.20;;;17.80;99.90;;;;;;5011248;28;20393;-77
2021/06/25 08:04:48;;;;;;;0.40;0.30;;;17.70;99.90;;;;;;5024932;28;20395;-80
2021/06/25 08:07:14;;;;;;;0.40;0.20;;;17.90;99.90;;;;;;5010923;28;20392;-79
2021/06/25 08:09:41;;;;;;;0.40;0.30;;;17.90;99.90;;;;;;5019291;28;20496;-80
2021/06/25 08:12:09;;;;;;;0.40;0.23;;;17.80;99.90;;;;;;5038449;28;20408;-80
2021/06/25 08:14:35;;;;;;;0.40;0.20;;;17.80;99.90;;;;;;5033691;28;20390;-80
2021/06/25 08:17:01;;;;;;;0.40;0.20;;;17.90;99.90;;;;;;5024909;28;20393;-79
2021/06/25 08:19:26;;;;;;;0.40;0.30;;;17.80;99.90;;;;;;5014514;28;20422;-80
2021/06/25 08:21:52;;;;;;;0.40;0.30;;;17.70;99.90;;;;;;5032804;28;20757;-80
2021/06/25 08:24:18;;;;;;;0.40;0.20;;;17.70;99.90;;;;;;5026812;28;20439;-80
2021/06/25 08:26:43;;;;;;;0.40;0.20;;;17.80;99.90;;;;;;5014174;28;20384;-80
2021/06/25 08:29:09;;;;;;;0.40;0.20;;;17.80;99.90;;;;;;5034056;28;20387;-80
2021/06/25 08:31:35;;;;;;;0.40;0.20;;;17.80;99.90;;;;;;5024772;28;20424;-80
2021/06/25 08:34:00;;;;;;;0.40;0.20;;;17.90;99.90;;;;;;5014714;28;20487;-80
2021/06/25 08:36:28;;;;;;;0.40;0.30;;;18.00;99.90;;;;;;5030713;28;20391;-79
2021/06/25 08:38:54;;;;;;;0.40;0.30;;;18.10;99.90;;;;;;5026847;28;20401;-78
2021/06/25 08:41:20;;;;;;;0.40;0.20;;;18.20;99.90;;;;;;5014579;28;20392;-79
2021/06/25 08:43:45;;;;;;;0.40;0.20;;;18.10;99.90;;;;;;5028556;28;20419;-80
2021/06/25 08:46:11;;;;;;;0.40;0.20;;;18.10;99.90;;;;;;5025353;28;20435;-79
2021/06/25 08:48:37;;;;;;;0.40;0.20;;;18.10;99.90;;;;;;5014004;28;20393;-80
2021/06/25 08:51:07;;;;;;;0.40;0.30;;;18.10;99.90;;;;;;5033927;28;20391;-81
2021/06/25 08:53:33;;;;;;;0.40;0.20;;;18.20;99.90;;;;;;5019537;28;20424;-80
2021/06/25 08:55:59;;;;;;;0.40;0.30;;;18.30;99.90;;;;;;5014240;28;20788;-79
2021/06/25 08:58:24;;;;;;;0.40;0.20;;;18.40;99.90;;;;;;5034070;28;20471;-78
2021/06/25 09:00:51;;;;;;;0.40;0.20;;;18.30;99.90;;;;;;5031546;28;20399;-79
2021/06/25 09:03:22;;;;;;;0.40;0.20;;;18.30;99.90;;;;;;5033761;28;20407;-79
2021/06/25 09:05:48;;;;;;;0.40;0.20;;;18.40;99.90;;;;;;5032710;28;20434;-79
2021/06/25 09:08:27;;;;;;;0.40;0.20;;;18.50;99.90;;;;;;5016667;28;20400;-79
2021/06/25 09:10:56;;;;;;;0.40;0.30;;;18.40;99.90;;;;;;5020175;28;20784;-79
2021/06/25 09:13:36;;;;;;;0.40;0.20;;;18.40;99.90;;;;;;5052671;28;20413;-79
2021/06/25 09:16:22;;;;;;;0.40;0.20;;;18.50;99.90;;;;;;5032829;28;20402;-78
2021/06/25 09:19:16;;;;;;;0.40;0.30;;;18.60;99.90;;;;;;5022235;28;20476;-78
2021/06/25 09:22:03;;;;;;;0.40;0.20;;;18.70;99.90;;;;;;5016802;28;20737;-79
2021/06/25 09:24:30;;;;;;;0.40;0.30;;;19.00;99.90;;;;;;5028082;28;20440;-77
2021/06/25 09:27:01;;;;;;;0.40;0.20;;;19.20;99.90;;;;;;5011530;28;20404;-77
2021/06/25 09:29:33;;;;;;;0.40;0.20;;;19.20;99.90;;;;;;5029411;28;20403;-79
2021/06/25 09:32:02;;;;;;;0.40;0.20;;;19.30;99.90;;;;;;5028005;28;20392;-77
2021/06/25 09:34:45;;;;;;;0.40;0.20;;;19.20;99.90;;;;;;5013254;28;20393;-79
2021/06/25 09:37:13;;;;;;;0.40;0.20;;;19.20;99.90;;;;;;5013299;28;20396;-77
2021/06/25 09:39:43;;;;;;;1.00;0.50;;;19.10;99.90;;;;;;5027415;28;20566;-78
2021/06/25 09:42:22;;;;;;;0.40;0.30;;;19.20;99.90;;;;;;5027608;28;20884;-77
2021/06/25 09:45:12;;;;;;;0.40;0.30;;;19.10;99.90;;;;;;5012106;28;20420;-78
2021/06/25 09:47:40;;;;;;;0.40;0.20;;;19.30;99.90;;;;;;5020025;28;20407;-78
2021/06/25 09:50:17;;;;;;;0.40;0.30;;;19.30;99.90;;;;;;5019823;28;20402;-78
2021/06/25 09:52:47;;;;;;;0.40;0.30;;;19.50;99.90;;;;;;5014314;28;20917;-76
2021/06/25 09:55:15;;;;;;;0.40;0.30;;;19.60;99.90;;;;;;5024837;28;20771;-76
2021/06/25 10:03:39;;;;;;;0.40;0.20;;;19.80;98.60;;;;;;5016314;28;20414;-78
2021/06/25 10:06:13;;;;;;;0.40;0.25;;;19.90;99.50;;;;;;5016463;28;20396;-79
2021/06/25 10:08:39;;;;;;;0.40;0.30;;;20.00;98.30;;;;;;5014764;28;21474;-78
2021/06/25 10:11:06;;;;;;;0.40;0.20;;;20.00;97.50;;;;;;5016223;28;20434;-78
2021/06/25 10:13:34;;;;;;;0.40;0.20;;;20.00;97.00;;;;;;5016528;28;20892;-78
2021/06/25 10:16:01;;;;;;;0.40;0.20;;;19.90;97.70;;;;;;5015744;28;21572;-78
2021/06/25 10:18:29;;;;;;;0.40;0.20;;;19.70;99.40;;;;;;5012136;28;20465;-79
2021/06/25 10:20:56;;;;;;;0.40;0.20;;;20.10;98.70;;;;;;5013792;28;20402;-78
2021/06/25 10:23:23;;;;;;;0.40;0.30;;;20.10;98.50;;;;;;5016369;28;20419;-78
2021/06/25 10:25:50;;;;;;;0.40;0.20;;;20.40;99.90;;;;;;4988481;28;20454;-78
2021/06/25 10:28:18;;;;;;;0.40;0.30;;;20.50;99.40;;;;;;4983183;28;20509;-78
2021/06/25 10:30:46;;;;;;;0.40;0.20;;;20.50;96.20;;;;;;4982413;28;20398;-81
2021/06/25 10:33:12;;;;;;;0.40;0.20;;;20.60;96.70;;;;;;4980488;28;20549;-78
2021/06/25 10:35:40;;;;;;;0.40;0.20;;;20.70;96.00;;;;;;5007522;28;20803;-81
2021/06/25 10:38:06;;;;;;;0.40;0.30;;;20.50;94.80;;;;;;5014930;28;20387;-78
2021/06/25 10:40:32;;;;;;;0.40;0.20;;;20.60;96.60;;;;;;5015831;28;21276;-78
2021/06/25 10:43:00;;;;;;;0.40;0.20;;;20.80;97.60;;;;;;5014616;28;20426;-77
2021/06/25 10:45:43;;;;;;;0.40;0.30;;;20.70;94.70;;;;;;5016773;28;20800;-78
2021/06/25 10:48:09;;;;;;;0.40;0.20;;;20.70;94.50;;;;;;4988877;28;21305;-80
2021/06/25 10:50:36;;;;;;;0.40;0.30;;;20.60;95.40;;;;;;4981769;28;21060;-79
2021/06/25 10:53:13;;;;;;;0.40;0.30;;;20.80;93.40;;;;;;4982301;28;21140;-78
2021/06/25 10:55:46;;;;;;;0.40;0.20;;;20.70;95.30;;;;;;4983025;28;21175;-78
2021/06/25 10:58:23;;;;;;;0.40;0.30;;;20.60;94.50;;;;;;4997292;28;20903;-78
2021/06/25 11:00:57;;;;;;;0.40;0.20;;;20.60;95.20;;;;;;5014501;28;20399;-79
2021/06/25 11:03:38;;;;;;;0.40;0.20;;;20.60;94.50;;;;;;4984332;28;22061;-79
2021/06/25 11:06:06;;;;;;;0.40;0.20;;;20.50;94.90;;;;;;4982477;28;21840;-75
2021/06/25 11:08:32;;;;;;;0.40;0.30;;;19.70;99.90;;;;;;4981541;28;20643;-77
2021/06/25 11:10:59;;;;;;;0.40;0.20;;;19.60;99.90;;;;;;4981911;28;20398;-78
2021/06/25 11:13:35;;;;;;;0.40;0.20;;;19.60;99.90;;;;;;5012861;28;20406;-79
2021/06/25 11:16:19;;;;;;;0.40;0.20;;;19.50;99.90;;;;;;5013669;28;20460;-80
2021/06/25 11:18:45;;;;;;;0.40;0.20;;;19.60;99.90;;;;;;4981641;28;20402;-80
2021/06/25 11:21:11;;;;;;;0.40;0.20;;;19.40;99.90;;;;;;5000378;28;20822;-79
2021/06/25 11:23:41;;;;;;;0.40;0.20;;;19.60;99.90;;;;;;5027019;28;20419;-79
2021/06/25 11:26:19;;;;;;;0.40;0.30;;;20.00;99.90;;;;;;5018854;28;20401;-78
2021/06/25 11:28:47;;;;;;;0.40;0.30;;;20.40;99.90;;;;;;5009480;28;20520;-79
2021/06/25 11:31:13;;;;;;;0.40;0.20;;;20.40;99.90;;;;;;5010149;28;20979;-79
2021/06/25 11:33:42;;;;;;;0.40;0.20;;;20.00;99.90;;;;;;5016032;28;20403;-80
2021/06/25 11:36:16;;;;;;;0.40;0.30;;;20.00;99.90;;;;;;5021486;28;20379;-81
2021/06/25 11:39:05;;;;;;;0.40;0.20;;;19.50;99.90;;;;;;5025811;28;20979;-80
2021/06/25 11:41:35;;;;;;;0.40;0.30;;;19.50;99.90;;;;;;5022961;28;20922;-80
2021/06/25 11:44:17;;;;;;;0.40;0.30;;;19.30;99.90;;;;;;5026919;28;21290;-81
2021/06/25 11:47:09;;;;;;;0.40;0.30;;;19.40;99.90;;;;;;5029155;28;20882;-81
2021/06/25 11:49:42;;;;;;;0.40;0.20;;;19.40;99.90;;;;;;4969330;28;20538;-79
2021/06/25 11:52:13;;;;;;;0.40;0.20;;;19.30;99.90;;;;;;5013486;28;20495;-80
2021/06/25 11:54:41;;;;;;;0.40;0.20;;;20.00;99.90;;;;;;5017237;28;20493;-80
2021/06/25 11:57:17;;;;;;;0.40;0.20;;;21.50;99.90;;;;;;5033908;28;20528;-80
2021/06/25 12:00:07;;;;;;;0.40;0.20;;;21.90;99.90;;;;;;5032227;28;20464;-82
2021/06/25 12:02:47;;;;;;;0.40;0.20;;;22.10;99.40;;;;;;5023175;28;20400;-80
2021/06/25 12:05:20;;;;;;;0.40;0.30;;;23.20;96.60;;;;;;5013589;28;20804;-80
2021/06/25 12:07:59;;;;;;;0.40;0.20;;;23.10;98.90;;;;;;5012826;28;20431;-80
2021/06/25 12:10:24;;;;;;;0.40;0.20;;;23.70;97.60;;;;;;5031955;28;20453;-80
2021/06/25 12:12:57;;;;;;;0.40;0.20;;;24.50;95.20;;;;;;5034572;28;20403;-81
2021/06/25 12:15:23;;;;;;;0.40;0.20;;;23.30;94.10;;;;;;5025568;28;20412;-80
2021/06/25 12:17:52;;;;;;;0.40;0.20;;;22.70;94.80;;;;;;5013494;28;20408;-80
2021/06/25 12:20:31;;;;;;;0.40;0.30;;;21.80;95.60;;;;;;5033211;28;20390;-79
2021/06/25 12:23:03;;;;;;;0.40;0.30;;;21.50;96.80;;;;;;5023511;28;20515;-76
2021/06/25 12:25:35;;;;;;;0.40;0.20;;;20.90;97.00;;;;;;5012825;28;20577;-80
2021/06/25 12:28:16;;;;;;;0.40;0.20;;;21.30;96.70;;;;;;5031756;28;20464;-81
2021/06/25 12:30:51;;;;;;;0.40;0.30;;;21.50;99.10;;;;;;5032725;28;20802;-81
2021/06/25 12:33:21;;;;;;;0.40;0.20;;;22.80;95.70;;;;;;5033907;28;20448;-77
2021/06/25 12:35:49;;;;;;;0.40;0.25;;;23.00;94.10;;;;;;5031983;28;20875;-82
2021/06/25 12:38:18;;;;;;;0.40;0.30;;;22.70;92.20;;;;;;5015002;28;20427;-80
2021/06/25 12:40:56;;;;;;;0.40;0.20;;;21.80;94.00;;;;;;5024016;28;20430;-80
2021/06/25 12:43:30;;;;;;;0.40;0.23;;;22.00;96.40;;;;;;5033902;28;20545;-78
2021/06/25 12:46:10;;;;;;;0.40;0.20;;;22.10;97.80;;;;;;5033236;28;20434;-82
2021/06/25 12:48:58;;;;;;;0.50;0.30;;;21.70;98.90;;;;;;5033842;28;20485;-80
2021/06/25 12:51:29;;;;;;;0.40;0.30;;;21.40;99.90;;;;;;5012680;28;20411;-80
2021/06/25 12:53:58;;;;;;;0.40;0.30;;;21.50;99.90;;;;;;5017189;28;20440;-81
2021/06/25 12:56:30;;;;;;;0.40;0.30;;;21.10;99.90;;;;;;5023658;28;20397;-79
2021/06/25 12:59:00;;;;;;;0.40;0.20;;;21.00;99.90;;;;;;5019834;28;20485;-79
2021/06/25 13:01:39;;;;;;;0.40;0.20;;;20.90;99.90;;;;;;5026167;28;20426;-80
2021/06/25 13:04:22;;;;;;;0.40;0.20;;;21.20;99.90;;;;;;5028979;28;20430;-81
2021/06/25 13:06:55;;;;;;;0.40;0.20;;;20.70;99.90;;;;;;5022256;28;20474;-79
2021/06/25 13:09:27;;;;;;;0.40;0.30;;;21.00;99.90;;;;;;5021839;28;20379;-79